sensor_id;sensor_type;location;lat;lon;timestamp;P1;durP1;ratioP1;P2;durP2;ratioP2
76495;SDS011;65329;52.544;4.662;2023-04-28T00:00:18;8.88;;;5.78;;
76495;SDS011;65329;52.544;4.662;2023-04-28T00:02:45;9.55;;;5.57;;
76495;SDS011;65329;52.544;4.662;2023-04-28T00:05:14;8.32;;;5.00;;
76495;SDS011;65329;52.544;4.662;2023-04-28T00:07:41;6.55;;;4.88;;
76495;SDS011;65329;52.544;4.662;2023-04-28T00:10:09;8.88;;;4.97;;
76495;SDS011;65329;52.544;4.662;2023-04-28T00:12:36;8.13;;;4.80;;
76495;SDS011;65329;52.544;4.662;2023-04-28T00:15:03;9.05;;;5.05;;
76495;SDS011;65329;52.544;4.662;2023-04-28T00:17:30;8.52;;;4.82;;
76495;SDS011;65329;52.544;4.662;2023-04-28T00:19:57;8.38;;;4.55;;
76495;SDS011;65329;52.544;4.662;2023-04-28T00:22:24;7.47;;;5.50;;
76495;SDS011;65329;52.544;4.662;2023-04-28T00:24:51;10.80;;;5.55;;
76495;SDS011;65329;52.544;4.662;2023-04-28T00:27:18;11.02;;;5.10;;
76495;SDS011;65329;52.544;4.662;2023-04-28T00:29:46;7.68;;;4.82;;
76495;SDS011;65329;52.544;4.662;2023-04-28T00:32:12;7.72;;;4.70;;
76495;SDS011;65329;52.544;4.662;2023-04-28T00:34:39;8.70;;;4.28;;
76495;SDS011;65329;52.544;4.662;2023-04-28T00:37:06;9.18;;;4.22;;
76495;SDS011;65329;52.544;4.662;2023-04-28T00:39:33;8.02;;;5.20;;
76495;SDS011;65329;52.544;4.662;2023-04-28T00:42:00;9.40;;;5.25;;
76495;SDS011;65329;52.544;4.662;2023-04-28T00:44:30;9.88;;;5.00;;
76495;SDS011;65329;52.544;4.662;2023-04-28T00:46:58;9.40;;;4.93;;
76495;SDS011;65329;52.544;4.662;2023-04-28T00:49:25;7.43;;;4.78;;
76495;SDS011;65329;52.544;4.662;2023-04-28T00:51:53;8.55;;;5.18;;
76495;SDS011;65329;52.544;4.662;2023-04-28T00:54:20;7.82;;;4.75;;
76495;SDS011;65329;52.544;4.662;2023-04-28T00:56:47;9.05;;;5.68;;
76495;SDS011;65329;52.544;4.662;2023-04-28T00:59:14;7.85;;;4.32;;
76495;SDS011;65329;52.544;4.662;2023-04-28T01:01:42;12.35;;;5.32;;
76495;SDS011;65329;52.544;4.662;2023-04-28T01:04:09;8.35;;;5.70;;
76495;SDS011;65329;52.544;4.662;2023-04-28T01:06:40;9.27;;;4.85;;
76495;SDS011;65329;52.544;4.662;2023-04-28T01:09:07;9.75;;;5.03;;
76495;SDS011;65329;52.544;4.662;2023-04-28T01:11:36;7.38;;;4.43;;
76495;SDS011;65329;52.544;4.662;2023-04-28T01:14:08;8.68;;;5.38;;
76495;SDS011;65329;52.544;4.662;2023-04-28T01:16:37;8.95;;;5.03;;
76495;SDS011;65329;52.544;4.662;2023-04-28T01:19:06;7.25;;;4.35;;
76495;SDS011;65329;52.544;4.662;2023-04-28T01:21:35;8.88;;;4.88;;
76495;SDS011;65329;52.544;4.662;2023-04-28T01:24:31;8.55;;;5.07;;
76495;SDS011;65329;52.544;4.662;2023-04-28T01:27:02;8.65;;;5.22;;
76495;SDS011;65329;52.544;4.662;2023-04-28T01:29:30;8.68;;;5.10;;
76495;SDS011;65329;52.544;4.662;2023-04-28T01:31:57;7.63;;;5.03;;
76495;SDS011;65329;52.544;4.662;2023-04-28T01:34:24;9.77;;;5.20;;
76495;SDS011;65329;52.544;4.662;2023-04-28T01:36:51;9.18;;;5.28;;
76495;SDS011;65329;52.544;4.662;2023-04-28T01:39:18;7.30;;;4.65;;
76495;SDS011;65329;52.544;4.662;2023-04-28T01:41:45;8.98;;;5.38;;
76495;SDS011;65329;52.544;4.662;2023-04-28T01:44:12;8.63;;;5.03;;
76495;SDS011;65329;52.544;4.662;2023-04-28T01:46:40;9.52;;;5.60;;
76495;SDS011;65329;52.544;4.662;2023-04-28T01:49:08;9.10;;;5.57;;
76495;SDS011;65329;52.544;4.662;2023-04-28T01:51:35;7.25;;;5.20;;
76495;SDS011;65329;52.544;4.662;2023-04-28T01:54:01;10.57;;;6.05;;
76495;SDS011;65329;52.544;4.662;2023-04-28T01:56:29;10.50;;;5.57;;
76495;SDS011;65329;52.544;4.662;2023-04-28T01:58:56;10.57;;;5.30;;
76495;SDS011;65329;52.544;4.662;2023-04-28T02:01:24;10.27;;;5.72;;
76495;SDS011;65329;52.544;4.662;2023-04-28T02:03:51;8.65;;;5.20;;
76495;SDS011;65329;52.544;4.662;2023-04-28T02:06:22;8.85;;;5.38;;
76495;SDS011;65329;52.544;4.662;2023-04-28T02:08:48;12.80;;;5.68;;
76495;SDS011;65329;52.544;4.662;2023-04-28T02:11:15;11.55;;;5.55;;
76495;SDS011;65329;52.544;4.662;2023-04-28T02:13:42;9.25;;;5.53;;
76495;SDS011;65329;52.544;4.662;2023-04-28T02:16:10;9.55;;;5.57;;
76495;SDS011;65329;52.544;4.662;2023-04-28T02:18:37;8.85;;;5.20;;
76495;SDS011;65329;52.544;4.662;2023-04-28T02:21:08;10.32;;;6.35;;
76495;SDS011;65329;52.544;4.662;2023-04-28T02:23:36;9.18;;;4.95;;
76495;SDS011;65329;52.544;4.662;2023-04-28T02:26:04;10.80;;;6.00;;
76495;SDS011;65329;52.544;4.662;2023-04-28T02:28:31;9.98;;;5.78;;
76495;SDS011;65329;52.544;4.662;2023-04-28T02:31:08;7.18;;;5.10;;
76495;SDS011;65329;52.544;4.662;2023-04-28T02:36:04;7.72;;;4.15;;
76495;SDS011;65329;52.544;4.662;2023-04-28T02:38:32;9.40;;;5.05;;
76495;SDS011;65329;52.544;4.662;2023-04-28T02:40:59;8.70;;;5.63;;
76495;SDS011;65329;52.544;4.662;2023-04-28T02:43:31;9.10;;;5.95;;
76495;SDS011;65329;52.544;4.662;2023-04-28T02:45:58;11.65;;;5.60;;
76495;SDS011;65329;52.544;4.662;2023-04-28T02:48:25;9.88;;;5.35;;
76495;SDS011;65329;52.544;4.662;2023-04-28T02:50:52;8.63;;;4.97;;
76495;SDS011;65329;52.544;4.662;2023-04-28T02:53:20;9.00;;;5.25;;
76495;SDS011;65329;52.544;4.662;2023-04-28T02:55:48;13.13;;;6.10;;
76495;SDS011;65329;52.544;4.662;2023-04-28T02:58:15;9.35;;;5.47;;
76495;SDS011;65329;52.544;4.662;2023-04-28T03:00:44;9.55;;;5.78;;
76495;SDS011;65329;52.544;4.662;2023-04-28T03:03:13;11.90;;;5.93;;
76495;SDS011;65329;52.544;4.662;2023-04-28T03:05:40;9.77;;;6.40;;
76495;SDS011;65329;52.544;4.662;2023-04-28T03:08:07;9.52;;;5.38;;
76495;SDS011;65329;52.544;4.662;2023-04-28T03:10:34;13.10;;;6.50;;
76495;SDS011;65329;52.544;4.662;2023-04-28T03:13:02;9.90;;;5.95;;
76495;SDS011;65329;52.544;4.662;2023-04-28T03:15:29;12.48;;;5.60;;
76495;SDS011;65329;52.544;4.662;2023-04-28T03:17:56;10.80;;;5.90;;
76495;SDS011;65329;52.544;4.662;2023-04-28T03:20:23;9.43;;;6.13;;
76495;SDS011;65329;52.544;4.662;2023-04-28T03:22:50;11.02;;;5.65;;
76495;SDS011;65329;52.544;4.662;2023-04-28T03:25:17;10.07;;;6.38;;
76495;SDS011;65329;52.544;4.662;2023-04-28T03:27:47;10.55;;;6.05;;
76495;SDS011;65329;52.544;4.662;2023-04-28T03:30:14;9.85;;;5.40;;
76495;SDS011;65329;52.544;4.662;2023-04-28T03:32:41;10.32;;;5.60;;
76495;SDS011;65329;52.544;4.662;2023-04-28T03:35:08;10.70;;;6.35;;
76495;SDS011;65329;52.544;4.662;2023-04-28T03:37:36;10.90;;;5.95;;
76495;SDS011;65329;52.544;4.662;2023-04-28T03:40:04;8.45;;;5.82;;
76495;SDS011;65329;52.544;4.662;2023-04-28T03:42:48;10.88;;;5.82;;
76495;SDS011;65329;52.544;4.662;2023-04-28T03:45:35;8.80;;;6.53;;
76495;SDS011;65329;52.544;4.662;2023-04-28T03:48:03;10.75;;;6.15;;
76495;SDS011;65329;52.544;4.662;2023-04-28T03:50:30;11.63;;;6.03;;
76495;SDS011;65329;52.544;4.662;2023-04-28T03:52:57;9.45;;;5.97;;
76495;SDS011;65329;52.544;4.662;2023-04-28T03:55:24;10.77;;;6.38;;
76495;SDS011;65329;52.544;4.662;2023-04-28T03:57:51;9.55;;;6.15;;
76495;SDS011;65329;52.544;4.662;2023-04-28T04:00:18;10.02;;;6.07;;
76495;SDS011;65329;52.544;4.662;2023-04-28T04:02:49;12.85;;;6.57;;
76495;SDS011;65329;52.544;4.662;2023-04-28T04:05:16;11.63;;;6.95;;
76495;SDS011;65329;52.544;4.662;2023-04-28T04:07:43;13.43;;;6.30;;
76495;SDS011;65329;52.544;4.662;2023-04-28T04:10:10;10.13;;;5.85;;
76495;SDS011;65329;52.544;4.662;2023-04-28T04:12:42;11.93;;;6.50;;
76495;SDS011;65329;52.544;4.662;2023-04-28T04:15:09;10.32;;;6.40;;
76495;SDS011;65329;52.544;4.662;2023-04-28T04:17:38;9.40;;;5.60;;
76495;SDS011;65329;52.544;4.662;2023-04-28T04:20:05;11.35;;;6.90;;
76495;SDS011;65329;52.544;4.662;2023-04-28T04:22:36;11.90;;;6.20;;
76495;SDS011;65329;52.544;4.662;2023-04-28T04:25:03;8.23;;;5.63;;
76495;SDS011;65329;52.544;4.662;2023-04-28T04:27:31;10.02;;;6.05;;
76495;SDS011;65329;52.544;4.662;2023-04-28T04:29:58;9.48;;;5.43;;
76495;SDS011;65329;52.544;4.662;2023-04-28T04:32:25;12.07;;;5.97;;
76495;SDS011;65329;52.544;4.662;2023-04-28T04:34:52;12.45;;;7.13;;
76495;SDS011;65329;52.544;4.662;2023-04-28T04:37:19;10.00;;;5.90;;
76495;SDS011;65329;52.544;4.662;2023-04-28T04:39:53;13.52;;;6.05;;
76495;SDS011;65329;52.544;4.662;2023-04-28T04:42:20;9.45;;;5.90;;
76495;SDS011;65329;52.544;4.662;2023-04-28T04:45:04;9.68;;;5.80;;
76495;SDS011;65329;52.544;4.662;2023-04-28T04:47:31;12.63;;;6.60;;
76495;SDS011;65329;52.544;4.662;2023-04-28T04:49:58;12.35;;;6.57;;
76495;SDS011;65329;52.544;4.662;2023-04-28T04:52:25;10.25;;;6.30;;
76495;SDS011;65329;52.544;4.662;2023-04-28T04:54:53;12.90;;;6.57;;
76495;SDS011;65329;52.544;4.662;2023-04-28T04:57:23;12.65;;;6.28;;
76495;SDS011;65329;52.544;4.662;2023-04-28T05:00:08;13.57;;;6.50;;
76495;SDS011;65329;52.544;4.662;2023-04-28T05:02:36;11.75;;;6.18;;
76495;SDS011;65329;52.544;4.662;2023-04-28T05:05:05;11.90;;;6.88;;
76495;SDS011;65329;52.544;4.662;2023-04-28T05:08:07;13.10;;;7.70;;
76495;SDS011;65329;52.544;4.662;2023-04-28T05:10:34;8.77;;;6.18;;
76495;SDS011;65329;52.544;4.662;2023-04-28T05:13:02;11.85;;;7.18;;
76495;SDS011;65329;52.544;4.662;2023-04-28T05:15:29;11.48;;;6.65;;
76495;SDS011;65329;52.544;4.662;2023-04-28T05:18:15;10.60;;;6.82;;
76495;SDS011;65329;52.544;4.662;2023-04-28T05:20:43;13.95;;;7.28;;
76495;SDS011;65329;52.544;4.662;2023-04-28T05:23:11;14.25;;;7.05;;
76495;SDS011;65329;52.544;4.662;2023-04-28T05:25:39;11.18;;;7.00;;
76495;SDS011;65329;52.544;4.662;2023-04-28T05:28:08;12.68;;;7.22;;
76495;SDS011;65329;52.544;4.662;2023-04-28T05:30:36;12.65;;;6.65;;
76495;SDS011;65329;52.544;4.662;2023-04-28T05:33:03;11.85;;;6.63;;
76495;SDS011;65329;52.544;4.662;2023-04-28T05:35:30;13.75;;;7.65;;
76495;SDS011;65329;52.544;4.662;2023-04-28T05:37:57;13.15;;;6.50;;
76495;SDS011;65329;52.544;4.662;2023-04-28T05:40:25;12.02;;;6.75;;
76495;SDS011;65329;52.544;4.662;2023-04-28T05:42:54;11.00;;;6.40;;
76495;SDS011;65329;52.544;4.662;2023-04-28T05:45:20;11.82;;;6.82;;
76495;SDS011;65329;52.544;4.662;2023-04-28T05:47:47;12.10;;;7.85;;
76495;SDS011;65329;52.544;4.662;2023-04-28T05:50:15;13.68;;;7.50;;
76495;SDS011;65329;52.544;4.662;2023-04-28T05:52:42;13.13;;;6.95;;
76495;SDS011;65329;52.544;4.662;2023-04-28T05:55:09;11.45;;;6.03;;
76495;SDS011;65329;52.544;4.662;2023-04-28T05:57:36;10.68;;;6.57;;
76495;SDS011;65329;52.544;4.662;2023-04-28T06:00:17;11.85;;;6.63;;
76495;SDS011;65329;52.544;4.662;2023-04-28T06:02:45;13.05;;;6.85;;
76495;SDS011;65329;52.544;4.662;2023-04-28T06:05:12;11.88;;;7.43;;
76495;SDS011;65329;52.544;4.662;2023-04-28T06:07:41;13.20;;;7.15;;
76495;SDS011;65329;52.544;4.662;2023-04-28T06:10:08;12.20;;;6.70;;
76495;SDS011;65329;52.544;4.662;2023-04-28T06:12:36;12.15;;;5.53;;
76495;SDS011;65329;52.544;4.662;2023-04-28T06:15:04;12.13;;;7.03;;
76495;SDS011;65329;52.544;4.662;2023-04-28T06:17:32;10.13;;;6.25;;
76495;SDS011;65329;52.544;4.662;2023-04-28T06:19:59;10.20;;;5.53;;
76495;SDS011;65329;52.544;4.662;2023-04-28T06:22:26;11.75;;;6.53;;
76495;SDS011;65329;52.544;4.662;2023-04-28T06:24:53;13.13;;;6.88;;
76495;SDS011;65329;52.544;4.662;2023-04-28T06:27:28;11.15;;;6.68;;
76495;SDS011;65329;52.544;4.662;2023-04-28T06:29:58;9.27;;;5.97;;
76495;SDS011;65329;52.544;4.662;2023-04-28T06:32:25;12.18;;;6.03;;
76495;SDS011;65329;52.544;4.662;2023-04-28T06:34:52;11.38;;;7.18;;
76495;SDS011;65329;52.544;4.662;2023-04-28T06:37:19;9.00;;;5.95;;
76495;SDS011;65329;52.544;4.662;2023-04-28T06:39:46;10.63;;;6.20;;
76495;SDS011;65329;52.544;4.662;2023-04-28T06:42:13;10.10;;;6.10;;
76495;SDS011;65329;52.544;4.662;2023-04-28T06:44:50;11.02;;;6.70;;
76495;SDS011;65329;52.544;4.662;2023-04-28T06:47:18;9.20;;;6.28;;
76495;SDS011;65329;52.544;4.662;2023-04-28T06:49:45;10.93;;;6.13;;
76495;SDS011;65329;52.544;4.662;2023-04-28T06:52:12;11.25;;;6.88;;
76495;SDS011;65329;52.544;4.662;2023-04-28T06:54:40;10.77;;;6.45;;
76495;SDS011;65329;52.544;4.662;2023-04-28T06:57:07;12.68;;;7.20;;
76495;SDS011;65329;52.544;4.662;2023-04-28T06:59:34;12.90;;;6.25;;
76495;SDS011;65329;52.544;4.662;2023-04-28T07:02:01;11.38;;;6.85;;
76495;SDS011;65329;52.544;4.662;2023-04-28T07:04:28;9.55;;;6.82;;
76495;SDS011;65329;52.544;4.662;2023-04-28T07:06:54;10.63;;;6.60;;
76495;SDS011;65329;52.544;4.662;2023-04-28T07:09:21;12.35;;;6.70;;
76495;SDS011;65329;52.544;4.662;2023-04-28T07:11:48;11.02;;;6.25;;
76495;SDS011;65329;52.544;4.662;2023-04-28T07:14:15;10.00;;;6.03;;
76495;SDS011;65329;52.544;4.662;2023-04-28T07:16:42;10.32;;;6.47;;
76495;SDS011;65329;52.544;4.662;2023-04-28T07:19:09;12.05;;;6.60;;
76495;SDS011;65329;52.544;4.662;2023-04-28T07:21:39;13.05;;;7.72;;
76495;SDS011;65329;52.544;4.662;2023-04-28T07:24:06;9.52;;;6.22;;
76495;SDS011;65329;52.544;4.662;2023-04-28T07:26:32;9.93;;;6.80;;
76495;SDS011;65329;52.544;4.662;2023-04-28T07:28:59;12.15;;;6.90;;
76495;SDS011;65329;52.544;4.662;2023-04-28T07:31:27;11.40;;;6.50;;
76495;SDS011;65329;52.544;4.662;2023-04-28T07:33:55;11.45;;;6.72;;
76495;SDS011;65329;52.544;4.662;2023-04-28T07:36:22;10.38;;;7.13;;
76495;SDS011;65329;52.544;4.662;2023-04-28T07:38:49;11.27;;;7.15;;
76495;SDS011;65329;52.544;4.662;2023-04-28T07:41:16;12.32;;;7.68;;
76495;SDS011;65329;52.544;4.662;2023-04-28T07:43:42;11.18;;;7.15;;
76495;SDS011;65329;52.544;4.662;2023-04-28T07:46:11;9.05;;;5.95;;
76495;SDS011;65329;52.544;4.662;2023-04-28T07:48:38;10.80;;;6.18;;
76495;SDS011;65329;52.544;4.662;2023-04-28T07:51:05;11.38;;;7.70;;
76495;SDS011;65329;52.544;4.662;2023-04-28T07:53:32;12.82;;;7.55;;
76495;SDS011;65329;52.544;4.662;2023-04-28T07:55:59;12.30;;;7.00;;
76495;SDS011;65329;52.544;4.662;2023-04-28T07:58:26;11.07;;;7.72;;
76495;SDS011;65329;52.544;4.662;2023-04-28T08:00:53;12.38;;;7.50;;
76495;SDS011;65329;52.544;4.662;2023-04-28T08:03:20;9.70;;;6.65;;
76495;SDS011;65329;52.544;4.662;2023-04-28T08:05:47;10.45;;;7.03;;
76495;SDS011;65329;52.544;4.662;2023-04-28T08:08:14;10.90;;;7.60;;
76495;SDS011;65329;52.544;4.662;2023-04-28T08:10:41;12.27;;;7.63;;
76495;SDS011;65329;52.544;4.662;2023-04-28T08:13:09;14.13;;;8.07;;
76495;SDS011;65329;52.544;4.662;2023-04-28T08:15:36;12.07;;;7.53;;
76495;SDS011;65329;52.544;4.662;2023-04-28T08:18:03;13.20;;;7.75;;
76495;SDS011;65329;52.544;4.662;2023-04-28T08:20:29;12.07;;;8.23;;
76495;SDS011;65329;52.544;4.662;2023-04-28T08:22:57;12.30;;;8.10;;
76495;SDS011;65329;52.544;4.662;2023-04-28T08:25:24;15.77;;;8.98;;
76495;SDS011;65329;52.544;4.662;2023-04-28T08:27:51;12.50;;;7.57;;
76495;SDS011;65329;52.544;4.662;2023-04-28T08:30:21;16.92;;;8.38;;
76495;SDS011;65329;52.544;4.662;2023-04-28T08:32:49;13.40;;;8.43;;
76495;SDS011;65329;52.544;4.662;2023-04-28T08:35:16;16.10;;;8.45;;
76495;SDS011;65329;52.544;4.662;2023-04-28T08:37:42;15.80;;;8.30;;
76495;SDS011;65329;52.544;4.662;2023-04-28T08:40:09;15.65;;;9.38;;
76495;SDS011;65329;52.544;4.662;2023-04-28T08:42:36;12.25;;;7.95;;
76495;SDS011;65329;52.544;4.662;2023-04-28T08:45:03;17.95;;;8.05;;
76495;SDS011;65329;52.544;4.662;2023-04-28T08:47:32;16.30;;;9.50;;
76495;SDS011;65329;52.544;4.662;2023-04-28T08:50:02;17.38;;;10.05;;
76495;SDS011;65329;52.544;4.662;2023-04-28T08:52:30;12.27;;;9.00;;
76495;SDS011;65329;52.544;4.662;2023-04-28T08:54:59;17.77;;;9.90;;
76495;SDS011;65329;52.544;4.662;2023-04-28T08:57:29;19.55;;;10.20;;
76495;SDS011;65329;52.544;4.662;2023-04-28T09:00:06;14.15;;;9.43;;
76495;SDS011;65329;52.544;4.662;2023-04-28T09:02:33;19.05;;;10.90;;
76495;SDS011;65329;52.544;4.662;2023-04-28T09:07:57;20.10;;;10.30;;
76495;SDS011;65329;52.544;4.662;2023-04-28T09:10:27;18.10;;;10.38;;
76495;SDS011;65329;52.544;4.662;2023-04-28T09:12:54;17.25;;;10.25;;
76495;SDS011;65329;52.544;4.662;2023-04-28T09:15:25;17.90;;;10.40;;
76495;SDS011;65329;52.544;4.662;2023-04-28T09:18:01;15.13;;;9.45;;
76495;SDS011;65329;52.544;4.662;2023-04-28T09:20:33;19.73;;;11.13;;
76495;SDS011;65329;52.544;4.662;2023-04-28T09:26:04;20.27;;;11.35;;
76495;SDS011;65329;52.544;4.662;2023-04-28T09:28:33;20.42;;;12.40;;
76495;SDS011;65329;52.544;4.662;2023-04-28T09:31:01;20.25;;;11.43;;
76495;SDS011;65329;52.544;4.662;2023-04-28T09:33:29;20.98;;;12.18;;
76495;SDS011;65329;52.544;4.662;2023-04-28T09:35:56;19.77;;;11.77;;
76495;SDS011;65329;52.544;4.662;2023-04-28T09:38:24;22.08;;;12.80;;
76495;SDS011;65329;52.544;4.662;2023-04-28T09:40:54;22.80;;;14.07;;
76495;SDS011;65329;52.544;4.662;2023-04-28T09:43:32;19.17;;;12.40;;
76495;SDS011;65329;52.544;4.662;2023-04-28T09:46:03;21.95;;;14.15;;
76495;SDS011;65329;52.544;4.662;2023-04-28T09:48:36;18.15;;;11.13;;
76495;SDS011;65329;52.544;4.662;2023-04-28T09:51:06;19.65;;;13.27;;
76495;SDS011;65329;52.544;4.662;2023-04-28T09:53:36;25.08;;;14.73;;
76495;SDS011;65329;52.544;4.662;2023-04-28T09:56:03;23.40;;;14.00;;
76495;SDS011;65329;52.544;4.662;2023-04-28T09:58:33;27.38;;;14.80;;
76495;SDS011;65329;52.544;4.662;2023-04-28T10:01:04;23.58;;;13.85;;
76495;SDS011;65329;52.544;4.662;2023-04-28T10:03:33;24.23;;;14.32;;
76495;SDS011;65329;52.544;4.662;2023-04-28T10:06:01;22.25;;;14.98;;
76495;SDS011;65329;52.544;4.662;2023-04-28T10:08:28;20.92;;;13.95;;
76495;SDS011;65329;52.544;4.662;2023-04-28T10:10:55;24.70;;;14.75;;
76495;SDS011;65329;52.544;4.662;2023-04-28T10:13:23;23.73;;;14.70;;
76495;SDS011;65329;52.544;4.662;2023-04-28T10:15:50;20.40;;;14.13;;
76495;SDS011;65329;52.544;4.662;2023-04-28T10:18:21;23.05;;;14.60;;
76495;SDS011;65329;52.544;4.662;2023-04-28T10:20:51;23.10;;;13.65;;
76495;SDS011;65329;52.544;4.662;2023-04-28T10:26:14;20.58;;;14.05;;
76495;SDS011;65329;52.544;4.662;2023-04-28T10:28:48;21.55;;;14.95;;
76495;SDS011;65329;52.544;4.662;2023-04-28T10:31:18;21.70;;;14.52;;
76495;SDS011;65329;52.544;4.662;2023-04-28T10:39:24;23.55;;;14.70;;
76495;SDS011;65329;52.544;4.662;2023-04-28T10:41:52;22.40;;;15.07;;
76495;SDS011;65329;52.544;4.662;2023-04-28T10:47:03;20.67;;;14.40;;
76495;SDS011;65329;52.544;4.662;2023-04-28T10:55:27;21.02;;;13.38;;
76495;SDS011;65329;52.544;4.662;2023-04-28T11:00:46;22.20;;;14.38;;
76495;SDS011;65329;52.544;4.662;2023-04-28T11:06:17;17.65;;;12.00;;
76495;SDS011;65329;52.544;4.662;2023-04-28T11:08:51;17.35;;;12.10;;
76495;SDS011;65329;52.544;4.662;2023-04-28T11:11:19;17.55;;;12.85;;
76495;SDS011;65329;52.544;4.662;2023-04-28T11:16:49;18.83;;;12.85;;
76495;SDS011;65329;52.544;4.662;2023-04-28T11:19:20;18.65;;;12.60;;
76495;SDS011;65329;52.544;4.662;2023-04-28T11:21:50;20.95;;;13.23;;
76495;SDS011;65329;52.544;4.662;2023-04-28T11:24:19;22.27;;;13.13;;
76495;SDS011;65329;52.544;4.662;2023-04-28T11:26:46;18.95;;;12.35;;
76495;SDS011;65329;52.544;4.662;2023-04-28T11:29:13;17.60;;;9.70;;
76495;SDS011;65329;52.544;4.662;2023-04-28T11:31:51;14.25;;;8.50;;
76495;SDS011;65329;52.544;4.662;2023-04-28T11:34:19;17.35;;;9.02;;
76495;SDS011;65329;52.544;4.662;2023-04-28T11:36:49;14.60;;;7.63;;
76495;SDS011;65329;52.544;4.662;2023-04-28T11:39:29;10.95;;;5.65;;
76495;SDS011;65329;52.544;4.662;2023-04-28T11:41:58;8.70;;;5.57;;
76495;SDS011;65329;52.544;4.662;2023-04-28T11:44:28;12.52;;;5.78;;
76495;SDS011;65329;52.544;4.662;2023-04-28T11:46:57;10.13;;;4.35;;
76495;SDS011;65329;52.544;4.662;2023-04-28T11:49:30;12.57;;;4.60;;
76495;SDS011;65329;52.544;4.662;2023-04-28T11:52:07;14.45;;;4.20;;
76495;SDS011;65329;52.544;4.662;2023-04-28T11:54:35;10.68;;;4.00;;
76495;SDS011;65329;52.544;4.662;2023-04-28T11:57:02;13.02;;;3.75;;
76495;SDS011;65329;52.544;4.662;2023-04-28T12:02:03;12.43;;;3.75;;
76495;SDS011;65329;52.544;4.662;2023-04-28T12:09:46;7.28;;;2.55;;
76495;SDS011;65329;52.544;4.662;2023-04-28T12:12:33;10.43;;;3.42;;
76495;SDS011;65329;52.544;4.662;2023-04-28T12:15:15;10.20;;;3.28;;
76495;SDS011;65329;52.544;4.662;2023-04-28T12:17:57;10.93;;;3.47;;
76495;SDS011;65329;52.544;4.662;2023-04-28T12:20:36;13.93;;;3.20;;
76495;SDS011;65329;52.544;4.662;2023-04-28T12:23:07;11.15;;;3.28;;
76495;SDS011;65329;52.544;4.662;2023-04-28T12:25:44;14.85;;;3.65;;
76495;SDS011;65329;52.544;4.662;2023-04-28T12:28:12;13.00;;;3.80;;
76495;SDS011;65329;52.544;4.662;2023-04-28T12:30:39;9.73;;;3.50;;
76495;SDS011;65329;52.544;4.662;2023-04-28T12:33:24;12.15;;;3.95;;
76495;SDS011;65329;52.544;4.662;2023-04-28T12:35:57;10.38;;;4.40;;
76495;SDS011;65329;52.544;4.662;2023-04-28T12:38:24;19.15;;;4.45;;
76495;SDS011;65329;52.544;4.662;2023-04-28T12:40:51;11.07;;;4.10;;
76495;SDS011;65329;52.544;4.662;2023-04-28T12:43:18;14.40;;;4.07;;
76495;SDS011;65329;52.544;4.662;2023-04-28T12:45:49;13.57;;;4.28;;
76495;SDS011;65329;52.544;4.662;2023-04-28T12:48:16;16.02;;;5.32;;
76495;SDS011;65329;52.544;4.662;2023-04-28T12:50:43;13.85;;;4.32;;
76495;SDS011;65329;52.544;4.662;2023-04-28T12:53:10;16.33;;;5.32;;
76495;SDS011;65329;52.544;4.662;2023-04-28T12:55:37;14.90;;;6.25;;
76495;SDS011;65329;52.544;4.662;2023-04-28T12:58:06;16.08;;;5.82;;
76495;SDS011;65329;52.544;4.662;2023-04-28T13:00:32;15.20;;;5.72;;
76495;SDS011;65329;52.544;4.662;2023-04-28T13:02:59;19.05;;;6.35;;
76495;SDS011;65329;52.544;4.662;2023-04-28T13:05:26;20.30;;;6.45;;
76495;SDS011;65329;52.544;4.662;2023-04-28T13:07:53;24.13;;;7.35;;
76495;SDS011;65329;52.544;4.662;2023-04-28T13:10:19;17.27;;;6.65;;
76495;SDS011;65329;52.544;4.662;2023-04-28T13:12:48;25.00;;;8.57;;
76495;SDS011;65329;52.544;4.662;2023-04-28T13:15:15;25.05;;;8.07;;
76495;SDS011;65329;52.544;4.662;2023-04-28T13:17:42;20.52;;;7.43;;
76495;SDS011;65329;52.544;4.662;2023-04-28T13:20:11;21.15;;;8.23;;
76495;SDS011;65329;52.544;4.662;2023-04-28T13:22:38;21.85;;;7.63;;
76495;SDS011;65329;52.544;4.662;2023-04-28T13:25:05;24.60;;;9.15;;
76495;SDS011;65329;52.544;4.662;2023-04-28T13:27:32;29.42;;;9.50;;
76495;SDS011;65329;52.544;4.662;2023-04-28T13:30:00;26.08;;;9.57;;
76495;SDS011;65329;52.544;4.662;2023-04-28T13:32:30;19.80;;;8.25;;
76495;SDS011;65329;52.544;4.662;2023-04-28T13:34:57;21.17;;;7.32;;
76495;SDS011;65329;52.544;4.662;2023-04-28T13:37:24;20.58;;;8.70;;
76495;SDS011;65329;52.544;4.662;2023-04-28T13:39:51;21.48;;;7.70;;
76495;SDS011;65329;52.544;4.662;2023-04-28T13:42:19;16.13;;;7.38;;
76495;SDS011;65329;52.544;4.662;2023-04-28T13:44:48;18.50;;;7.72;;
76495;SDS011;65329;52.544;4.662;2023-04-28T13:47:14;22.67;;;8.82;;
76495;SDS011;65329;52.544;4.662;2023-04-28T13:49:41;18.42;;;7.43;;
76495;SDS011;65329;52.544;4.662;2023-04-28T13:52:08;17.98;;;6.95;;
76495;SDS011;65329;52.544;4.662;2023-04-28T13:54:35;21.55;;;8.75;;
76495;SDS011;65329;52.544;4.662;2023-04-28T13:57:02;18.00;;;7.30;;
76495;SDS011;65329;52.544;4.662;2023-04-28T13:59:29;18.20;;;8.05;;
76495;SDS011;65329;52.544;4.662;2023-04-28T14:01:56;17.60;;;7.63;;
76495;SDS011;65329;52.544;4.662;2023-04-28T14:04:23;18.17;;;7.78;;
76495;SDS011;65329;52.544;4.662;2023-04-28T14:06:51;15.43;;;6.68;;
76495;SDS011;65329;52.544;4.662;2023-04-28T14:09:17;15.20;;;6.78;;
76495;SDS011;65329;52.544;4.662;2023-04-28T14:11:44;13.25;;;6.00;;
76495;SDS011;65329;52.544;4.662;2023-04-28T14:14:11;17.15;;;6.43;;
76495;SDS011;65329;52.544;4.662;2023-04-28T14:16:38;11.57;;;6.55;;
76495;SDS011;65329;52.544;4.662;2023-04-28T14:19:05;14.85;;;5.55;;
76495;SDS011;65329;52.544;4.662;2023-04-28T14:21:32;13.07;;;6.10;;
76495;SDS011;65329;52.544;4.662;2023-04-28T14:23:59;19.23;;;6.40;;
76495;SDS011;65329;52.544;4.662;2023-04-28T14:26:26;13.32;;;6.35;;
76495;SDS011;65329;52.544;4.662;2023-04-28T14:28:53;18.45;;;6.75;;
76495;SDS011;65329;52.544;4.662;2023-04-28T14:31:20;11.27;;;5.80;;
76495;SDS011;65329;52.544;4.662;2023-04-28T14:33:47;16.27;;;6.43;;
76495;SDS011;65329;52.544;4.662;2023-04-28T14:36:15;11.25;;;5.35;;
76495;SDS011;65329;52.544;4.662;2023-04-28T14:38:42;11.23;;;5.90;;
76495;SDS011;65329;52.544;4.662;2023-04-28T14:41:09;20.05;;;5.63;;
76495;SDS011;65329;52.544;4.662;2023-04-28T14:43:36;10.88;;;5.18;;
76495;SDS011;65329;52.544;4.662;2023-04-28T14:46:03;19.10;;;6.75;;
76495;SDS011;65329;52.544;4.662;2023-04-28T14:48:31;10.95;;;4.72;;
76495;SDS011;65329;52.544;4.662;2023-04-28T14:50:58;17.02;;;7.15;;
76495;SDS011;65329;52.544;4.662;2023-04-28T14:53:24;12.55;;;6.50;;
76495;SDS011;65329;52.544;4.662;2023-04-28T14:55:51;17.67;;;6.22;;
76495;SDS011;65329;52.544;4.662;2023-04-28T14:58:19;12.38;;;6.50;;
76495;SDS011;65329;52.544;4.662;2023-04-28T15:00:46;14.63;;;6.38;;
76495;SDS011;65329;52.544;4.662;2023-04-28T15:03:13;17.60;;;7.18;;
76495;SDS011;65329;52.544;4.662;2023-04-28T15:05:40;12.77;;;7.32;;
76495;SDS011;65329;52.544;4.662;2023-04-28T15:08:07;15.60;;;6.85;;
76495;SDS011;65329;52.544;4.662;2023-04-28T15:10:36;14.95;;;7.55;;
76495;SDS011;65329;52.544;4.662;2023-04-28T15:13:05;17.65;;;8.50;;
76495;SDS011;65329;52.544;4.662;2023-04-28T15:15:33;13.82;;;6.88;;
76495;SDS011;65329;52.544;4.662;2023-04-28T15:18:00;14.70;;;7.93;;
76495;SDS011;65329;52.544;4.662;2023-04-28T15:20:30;16.02;;;7.60;;
76495;SDS011;65329;52.544;4.662;2023-04-28T15:22:58;13.10;;;7.28;;
76495;SDS011;65329;52.544;4.662;2023-04-28T15:25:26;18.08;;;7.93;;